LGKR/CFU METAR and TAF weather

Enter ICAO airport designator
Station Type Date Time Source
LGKR METAR 2022/09/26 09:20 UTC NOAA

LGKR 260920Z 14010KT 9999 FEW018 BKN025 BKN080 22/18 Q1015 NOSIG


Station Type Date Time Source
LGKR Decoded METAR 2022/09/26 09:20 UTC NOAA

Kerkyra Airport , Greece (LGKR) 39-37N 019-55E 4M
Sep 26, 2022 - 05:20 AM EDT / 2022.09.26 0920 UTC
Wind: from the SE (140 degrees) at 12 MPH (10 KT):0
Visibility: greater than 7 mile(s):0
Sky conditions: mostly cloudy
Temperature: 71 F (22 C)
Dew Point: 64 F (18 C)
Relative Humidity: 78%
Pressure (altimeter): 29.97 in. Hg (1015 hPa)
ob: LGKR 260920Z 14010KT 9999 FEW018 BKN025 BKN080 22/18 Q1015 NOSIG
cycle: 9

Station Type Date Time Source
LGKR TAF 2022/09/26 06:14 UTC NOAA

TAF LGKR 260500Z 2606/2706 16010KT 9999 FEW020 SCT030 BKN080
TEMPO 2609/2622 17012G22KT PROB40
TEMPO 2606/2706 5000 SHRA FEW018TCU BKN030 BKN070 PROB30
TEMPO 2606/2706 4000 TSRA FEW018CB BKN020 BKN070

Example: see airport list